This is the latest recevied weather packets stored in our database for station/object KE9DBJ. If no packets are shown the sender has not sent any weather packets the latest 10 day(s).
| Time | Temp. | Humidity | Pressure | Rain* | Wind** | Luminosity | Snow |
|---|---|---|---|---|---|---|---|
| 1777359948 | 15° C | 99% | 1007.7 hPa | 1.27 mm | - | - | - |
| 1777359315 | 15° C | 99% | 1008.1 hPa | 2.03 mm | - | - | - |
| 1777355131 | 15.56° C | 99% | 1011.5 hPa | 18.29 mm | - | - | - |
| 1777350316 | 16.11° C | 98% | 1009.7 hPa | 6.86 mm | - | - | - |
| 1777349125 | 16.11° C | 98% | 1009.3 hPa | 8.64 mm | - | - | - |
| 1777346721 | 16.11° C | 96% | 1009.6 hPa | 7.11 mm | - | - | - |
| 1777340126 | 16.67° C | 97% | 1011.9 hPa | 2.54 mm | - | - | - |
| 1777337728 | 17.22° C | 95% | 1010.8 hPa | 3.05 mm | - | - | - |
| 1777331722 | 17.22° C | 97% | 1012.1 hPa | 7.11 mm | - | - | - |
| 1777328129 | 19.44° C | 80% | 1012.3 hPa | 0.51 mm | - | - | - |
| 1777326920 | 18.89° C | 80% | 1011.5 hPa | 0 mm | - | - | - |
| 1777326324 | 18.89° C | 82% | 1009.8 hPa | 0 mm | - | - | - |
| 1777323923 | 19.44° C | 78% | 1009.4 hPa | 0.25 mm | - | - | - |
| 1777319718 | 22.78° C | 64% | 1011.5 hPa | 0 mm | - | - | - |
| 1777317317 | 25° C | 56% | 1012.1 hPa | 0 mm | - | - | - |
| 1777316146 | 25° C | 57% | 1012.2 hPa | 0 mm | - | - | - |
| 1777313725 | 25° C | 61% | 1012.9 hPa | 0 mm | - | - | - |
| 1777311919 | 23.89° C | 64% | 1013.5 hPa | 0 mm | - | - | - |
| 1777302930 | 21.67° C | 61% | 1015.4 hPa | 0 mm | - | - | - |
| 1777301125 | 20° C | 65% | 1015.4 hPa | 0 mm | - | - | - |
| 1777297533 | 16.11° C | 82% | 1015.7 hPa | 0 mm | - | - | - |
| 1777295152 | 11.67° C | 97% | 1015.9 hPa | 0 mm | - | - | - |
| 1777294518 | 11.11° C | 99% | 1016 hPa | 0 mm | - | - | - |
| 1777293327 | 10° C | 99% | 1016 hPa | 0 mm | - | - | - |
| 1777288525 | 7.22° C | 99% | 1016.3 hPa | 0 mm | - | - | - |
* Rain latest hour (hover to see other rain measurements)
** Current wind speed in m/s (hover to see current wind gust speed)